Fort Chaffee, Arkansas
Current Conditions -  °F | °C
As of 11:53 AM on Saturday 20 Dec 2014 (Local Time) from KFSM Reporting Station
Haze Haze  
Wind Chill: 45°   Ceiling: 1000
Heat Index: 45°   Visibility: 3mi
Dew Point: 39°   Wind: 0mph
Humidity: 80%   Direction: NA
Pressure: 30.25"   Gusts: NA
Location:  35.2393°N, 94.1304°W
Report Text: KFSM 201753Z 00000KT 3SM HZ OVC010 07/04 A3025 RMK AO2 SLP244 T00720039 10072 20050 58001
Loading
Personal Weather Stations






























Interactive Weather Map New forecast layout! Learn more

10-Day Weather Forecast

Advertisements
Track Severe Weather on mobile